• pl
  • eng

Awiacja
Kliknij na pogrubioną czerwoną nazwę, aby odkodować depeszę. 21:31 24.05.2019
  • WIND
  • SIGNIFICANT EURO
  • SIGNIFICANT
  • SIGMET
  • AIRMET
  • TAF FC
  • TAF FT
  • METAR GG30
  • METAR GG00


METAR EPBY 241930Z 19006KT CAVOK 16/07 Q1011 =

METAR EPGD 241930Z 14006KT CAVOK 13/10 Q1010 =

METAR EPKK 241930Z VRB01KT 8000 FEW046 SCT068 13/12 Q1013 =

METAR EPKT 241930Z 11003KT CAVOK 11/09 Q1013 =

METAR EPLB 241930Z 27003KT 9000 NSC 15/14 Q1011 =

METAR EPLL 241930Z VRB01KT CAVOK 13/11 Q1012 =

METAR EPMO 241930Z 26003KT CAVOK 16/11 Q1011 =

METAR EPPO 241930Z 19003KT CAVOK 13/08 Q1012 =

METAR EPRA 241930Z NIL=

METAR EPRZ 241930Z 27009KT 9999 BKN007 OVC023 14/13 Q1012 =

METAR EPSC 241930Z 12003KT CAVOK 14/09 Q1010 =

METAR EPSY 241930Z 29002KT CAVOK 14/10 Q1011=

METAR EPWA 241930Z 28004KT CAVOK 16/11 Q1011 NOSIG=

METAR EPWR 241930Z 24003KT 190V310 CAVOK 14/08 Q1013 =

METAR EPZG 241930Z VRB02KT CAVOK 15/10 Q1012 =
 METAR EPRZ
Lokalizacja:EPRZ Rzeszów Jasionka
Czas:19:30 UTC
Średni kierunek wiatru:270 °
Średnia prędkość wiatru:9 węzłów
Widzialność:10 km i więcej
Pierwsza warstwa chmur:5/8 do 7/8, wysokość podstawy 700 FT
Druga warstwa chmur:8/8, wysokość podstawy 2300 FT
Temperatura powietrza:14 °C
Temperatura punktu rosy:13 °C
Ciśnienie QNH:1012 hPa
Awiacja.imgw.pl jest pogodowym serwisem informacyjnym
Instytutu Meteorologii i Gospodarki Wodnej Państwowego Instytutu Badawczego.
Copyright IMGW PIB 2009-2011© Wszelkie prawa zastrzeżone.